Fort McMurray Airport
CYMM : rendu visible

Aérodrome :











RETROUVEZ-NOUS SUR...

 
LOGIN :

S'inscrire | Disclaimer

   EN    FR    IT 

 









Légende :    VFR   VFR Marginal   IFR   IFR Intensif   IFR Très Intensif
Visi : 
Plafond : 
>= 8 km
>= 3000ft
5 à 8 km
1000 à 3000 ft
1500m à 5 km
500 à 1000 ft
800 à 1500m
200 à 500 ft
< 800m
< 200 ft
Symboles :   Orages  Brouillard  Fortes neiges  Fortes précipitations  Vent > 20 kt






- Altitude de l'aérodrome : 1211 ft
- Code IATA : YMM


CYMM - Fort McMurray

DERNIER METAR :
  • 180900Z AUTO 31009KT 9SM -SN FEW060 OVC080 M26/M30 A3055 RMK SLP398

METARs EXPIRÉS :
  • 180800Z AUTO 30008KT 6SM -SN OVC075 M26/M30 A3053 RMK SLP391
  • 180754Z AUTO 31009KT 6SM -SN OVC075 M26/M30 A3053 RMK SLP391
  • 180700Z AUTO 31007KT 3SM -SN OVC075 M26/M30 A3051 RMK SLP384
  • 180655Z AUTO 31009KT 3SM -SN OVC075 M26/M30 A3051 RMK SLP385
  • 180642Z AUTO 31008KT 1 3/4SM -SN OVC075 M26/M30 A3050 RMK VIS VRB 1-3 SLP384

TAF AMD TAF CYMM
Valide du 18 à 08h jusqu'au 18 à 19h UTC


180808Z 1808/1819 30008KT 6SM -SN SCT030 OVC080
TEMPO 1808/1813 2SM -SN BKN020 OVC060
FM181300 32006KT P6SM FEW020 BKN080
TEMPO 1813/1819 4SM -SN SCT020 OVC040 RMK FCST BASED ON AUTO OBS. NXT FCST BY 181300Z



MET'MAP, la Météo Aéronautique d'un coup d'oeil ! - Copyright ORBIFLY Décembre 2007 - Disclaimer

ORBIFLY MET'MAP TEAM :

Programmation & Développement : Alexandra Zaïnal
Sur une idée originale de : Baudouin d'Aumeries
Assistance à la programmation : Marc-Olivier Méhu
Soutien technique & logistique : Manuel Goepfert

Contact : metmap@orbifly.com




SOURCES & CREDITS :

   NOAA       Earth
Advisory